Time;durP1;ratioP1;P1;durP2;ratioP2;P2;SDS_P1;SDS_P2;PMS_P1;PMS_P2;Temp;Humidity;BMP_temperature;BMP_pressure;BME280_temperature;BME280_humidity;BME280_pressure;Samples;Min_cycle;Max_cycle;Signal;HPM_P1;HPM_P2
2024/02/05 00:00:01;;;;;;;4.47;3.20;;;;;;;9.04;55.31;98868.00;4979842;28;20557;-83
2024/02/05 00:02:26;;;;;;;5.13;3.30;;;;;;;9.07;55.22;98873.00;4978766;28;20125;-85
2024/02/05 00:04:52;;;;;;;4.50;3.20;;;;;;;9.06;55.27;98866.13;4977829;28;20591;-82
2024/02/05 00:07:18;;;;;;;4.63;3.22;;;;;;;9.07;55.01;98859.16;4960980;28;20034;-83
2024/02/05 00:09:43;;;;;;;4.03;3.47;;;;;;;9.15;55.14;98880.28;4978066;28;20044;-84
2024/02/05 00:12:09;;;;;;;3.50;2.80;;;;;;;9.15;54.78;98881.13;4978599;28;20064;-82
2024/02/05 00:14:35;;;;;;;3.72;2.97;;;;;;;9.17;54.77;98881.88;4978926;28;20050;-86
2024/02/05 00:17:00;;;;;;;4.00;3.15;;;;;;;9.16;54.60;98871.56;4979206;28;20516;-85
2024/02/05 00:19:25;;;;;;;4.15;3.40;;;;;;;9.19;54.78;98868.75;4979586;28;20107;-84
2024/02/05 00:21:51;;;;;;;4.30;3.13;;;;;;;9.20;54.34;98867.78;4995848;28;20052;-83
2024/02/05 00:24:17;;;;;;;4.32;3.20;;;;;;;9.23;54.41;98862.38;4995620;28;20137;-83
2024/02/05 00:26:43;;;;;;;3.63;3.13;;;;;;;9.24;54.56;98866.66;4979695;28;20441;-84
2024/02/05 00:29:09;;;;;;;4.30;2.90;;;;;;;9.21;54.51;98861.66;4979974;28;20033;-83
2024/02/05 00:31:35;;;;;;;3.53;3.00;;;;;;;9.27;54.25;98856.00;4979733;28;20030;-83
2024/02/05 00:34:01;;;;;;;5.68;3.00;;;;;;;9.23;54.10;98834.56;4993814;28;20053;-83
2024/02/05 00:36:26;;;;;;;3.47;3.10;;;;;;;9.29;54.02;98858.50;4962063;28;20041;-84
2024/02/05 00:38:52;;;;;;;4.43;3.30;;;;;;;9.31;54.10;98865.25;5012469;28;20038;-83
2024/02/05 00:41:17;;;;;;;3.92;3.15;;;;;;;9.29;54.06;98851.53;4963057;28;20058;-84
2024/02/05 00:43:43;;;;;;;3.88;3.10;;;;;;;9.29;53.84;98837.69;4963123;28;20049;-84
2024/02/05 00:46:08;;;;;;;3.70;3.00;;;;;;;9.31;53.90;98843.59;4979371;28;20486;-83
2024/02/05 00:48:34;;;;;;;4.57;3.35;;;;;;;9.28;53.87;98822.97;4979003;28;20045;-83
2024/02/05 00:50:59;;;;;;;4.00;3.30;;;;;;;9.28;53.83;98822.97;4995432;28;20064;-83
2024/02/05 00:53:25;;;;;;;4.22;3.17;;;;;;;9.36;53.77;98846.72;4995164;28;20119;-84
2024/02/05 00:55:50;;;;;;;4.80;3.22;;;;;;;9.32;53.86;98848.72;4995464;28;20088;-84
2024/02/05 00:58:16;;;;;;;4.32;3.60;;;;;;;9.35;53.65;98848.50;4994603;28;20104;-83
2024/02/05 01:00:41;;;;;;;4.28;3.38;;;;;;;9.38;53.30;98850.06;4995367;28;20038;-84
2024/02/05 01:03:07;;;;;;;5.07;3.40;;;;;;;9.38;53.60;98834.44;4995302;28;20073;-83
2024/02/05 01:05:33;;;;;;;4.25;3.63;;;;;;;9.39;53.33;98838.69;4979281;28;20041;-85
2024/02/05 01:07:58;;;;;;;5.07;3.22;;;;;;;9.35;53.51;98825.06;4979700;28;20053;-84
2024/02/05 01:10:24;;;;;;;3.75;2.97;;;;;;;9.41;53.32;98829.84;4992752;28;20041;-83
2024/02/05 01:12:49;;;;;;;3.40;2.85;;;;;;;9.41;53.28;98819.41;4995343;28;20042;-84
2024/02/05 01:15:15;;;;;;;3.75;3.08;;;;;;;9.41;53.15;98827.22;4962923;28;20042;-84
2024/02/05 01:17:41;;;;;;;4.13;3.13;;;;;;;9.43;53.25;98814.09;4982704;28;20041;-83
2024/02/05 01:20:10;;;;;;;3.58;3.17;;;;;;;9.44;53.29;98804.50;5007728;28;20417;-83
2024/02/05 01:22:37;;;;;;;3.42;2.92;;;;;;;9.39;53.13;98797.00;4963715;28;20042;-84
2024/02/05 01:25:04;;;;;;;3.20;2.70;;;;;;;9.40;53.26;98794.28;4994841;28;20045;-84
2024/02/05 01:27:30;;;;;;;3.60;3.08;;;;;;;9.41;53.05;98782.13;4979296;28;20087;-84
2024/02/05 01:29:55;;;;;;;3.78;2.88;;;;;;;9.49;52.93;98799.78;4995041;28;20042;-83
2024/02/05 01:32:21;;;;;;;3.60;2.95;;;;;;;9.50;52.88;98788.44;4994831;28;20042;-84
2024/02/05 01:34:47;;;;;;;3.50;2.97;;;;;;;9.43;52.60;98780.22;4994696;28;20049;-84
2024/02/05 01:37:13;;;;;;;4.35;3.25;;;;;;;9.50;52.62;98773.63;4962777;28;20041;-85
2024/02/05 01:39:38;;;;;;;3.60;3.10;;;;;;;9.50;52.56;98780.63;4978604;28;20102;-84
2024/02/05 01:42:04;;;;;;;4.65;3.10;;;;;;;9.51;52.54;98758.84;4962301;28;20062;-82
2024/02/05 01:44:29;;;;;;;4.40;3.10;;;;;;;9.48;52.61;98740.81;4961965;28;20033;-83
2024/02/05 01:46:55;;;;;;;4.50;3.03;;;;;;;9.55;52.49;98755.91;4962564;28;20402;-83
2024/02/05 01:49:21;;;;;;;3.22;2.90;;;;;;;9.56;52.29;98748.91;4979774;28;20042;-84
2024/02/05 01:51:47;;;;;;;3.40;2.95;;;;;;;9.54;52.55;98737.78;4981987;28;20053;-83
2024/02/05 01:54:14;;;;;;;3.30;2.83;;;;;;;9.58;52.35;98737.44;4981109;28;20052;-83
2024/02/05 01:56:40;;;;;;;3.78;3.17;;;;;;;9.60;52.45;98740.75;4981869;28;20200;-83
2024/02/05 01:59:05;;;;;;;5.50;3.10;;;;;;;9.59;52.32;98718.22;4982383;28;20042;-84
2024/02/05 02:01:32;;;;;;;4.05;3.10;;;;;;;9.56;52.33;98723.66;4982112;28;20084;-83
2024/02/05 02:03:58;;;;;;;3.22;2.65;;;;;;;9.62;52.38;98734.63;4984359;28;20042;-82
2024/02/05 02:06:24;;;;;;;3.63;2.95;;;;;;;9.55;52.18;98723.78;4981450;28;20034;-83
2024/02/05 02:08:49;;;;;;;3.92;3.17;;;;;;;9.62;52.11;98745.88;4981703;28;20042;-81
2024/02/05 02:11:15;;;;;;;4.00;3.10;;;;;;;9.64;52.04;98736.16;4981985;28;20049;-82
2024/02/05 02:13:41;;;;;;;3.53;2.97;;;;;;;9.61;51.93;98736.38;5015762;28;20042;-82
2024/02/05 02:16:08;;;;;;;5.28;2.95;;;;;;;9.67;51.95;98717.69;4997465;28;20049;-82
2024/02/05 02:18:34;;;;;;;4.35;2.72;;;;;;;9.65;51.98;98705.72;4981965;28;20053;-82
2024/02/05 02:21:00;;;;;;;3.47;3.15;;;;;;;9.70;51.94;98714.84;4964758;28;20131;-83
2024/02/05 02:23:29;;;;;;;3.90;3.08;;;;;;;9.75;51.80;98714.53;4981543;28;20037;-81
2024/02/05 02:25:55;;;;;;;4.60;2.60;;;;;;;9.70;51.87;98708.81;4997597;28;20124;-83
2024/02/05 02:28:21;;;;;;;3.97;2.45;;;;;;;9.77;51.89;98715.22;4998327;28;20042;-83
2024/02/05 02:30:46;;;;;;;3.53;2.70;;;;;;;9.85;51.76;98715.53;4965099;28;20037;-83
2024/02/05 02:33:31;;;;;;;4.05;3.10;;;;;;;9.91;51.14;98727.25;4981266;28;20046;-84
2024/02/05 02:36:04;;;;;;;3.75;2.95;;;;;;;9.88;51.41;98711.84;4981079;28;20084;-83
2024/02/05 02:38:35;;;;;;;3.20;2.72;;;;;;;9.87;51.26;98708.41;4981642;28;20073;-82
2024/02/05 02:41:03;;;;;;;3.50;3.03;;;;;;;9.93;51.22;98721.00;4980991;28;20060;-83
2024/02/05 02:43:31;;;;;;;3.58;3.00;;;;;;;9.95;51.14;98723.50;4997554;28;20034;-82
2024/02/05 02:45:57;;;;;;;3.58;3.05;;;;;;;9.96;51.11;98725.13;4981365;28;20044;-82
2024/02/05 02:48:22;;;;;;;4.03;2.88;;;;;;;9.96;50.89;98746.00;4965029;28;20045;-82
2024/02/05 02:50:48;;;;;;;3.75;2.67;;;;;;;9.93;51.01;98725.34;4997769;28;20034;-83
2024/02/05 02:53:13;;;;;;;3.35;2.85;;;;;;;9.90;50.86;98728.22;4980242;28;20069;-83
2024/02/05 02:55:39;;;;;;;3.70;3.03;;;;;;;9.84;50.68;98698.19;5013824;28;20030;-83
2024/02/05 02:58:04;;;;;;;3.85;3.00;;;;;;;9.87;50.83;98707.59;4980107;28;20037;-82
2024/02/05 03:00:30;;;;;;;3.15;2.70;;;;;;;9.84;50.83;98715.63;4980120;28;20421;-82
2024/02/05 03:02:55;;;;;;;3.85;2.67;;;;;;;9.83;50.67;98711.34;4996320;28;20096;-82
2024/02/05 03:05:21;;;;;;;4.60;3.00;;;;;;;9.82;50.89;98712.28;4996796;28;20077;-82
2024/02/05 03:07:46;;;;;;;4.15;2.92;;;;;;;9.77;50.80;98710.00;4997168;28;20041;-83
2024/02/05 03:10:12;;;;;;;3.67;2.90;;;;;;;9.76;50.88;98700.56;5014246;28;20406;-83
2024/02/05 03:12:37;;;;;;;3.78;2.80;;;;;;;9.75;50.95;98691.88;4982368;28;20084;-81
2024/02/05 03:15:03;;;;;;;3.88;2.90;;;;;;;9.70;51.01;98688.78;4999513;28;20038;-81
2024/02/05 03:17:29;;;;;;;4.10;2.72;;;;;;;9.72;50.74;98688.66;4980426;28;20125;-81
2024/02/05 03:19:54;;;;;;;3.53;2.67;;;;;;;9.68;50.86;98679.44;4980045;28;20037;-83
2024/02/05 03:22:20;;;;;;;3.72;2.58;;;;;;;9.66;50.88;98676.09;4998779;28;20041;-81
2024/02/05 03:24:46;;;;;;;3.70;2.90;;;;;;;9.65;50.65;98677.88;5000464;28;20076;-83
2024/02/05 03:27:11;;;;;;;3.42;2.72;;;;;;;9.64;51.02;98681.41;4996299;28;20464;-82
2024/02/05 03:29:37;;;;;;;3.20;2.65;;;;;;;9.67;50.83;98686.41;4996212;28;20041;-83
2024/02/05 03:32:03;;;;;;;3.33;2.40;;;;;;;9.67;50.86;98682.97;4995664;28;20108;-82
2024/02/05 03:34:29;;;;;;;4.22;3.20;;;;;;;9.66;50.96;98681.31;4964023;28;20038;-81
2024/02/05 03:36:55;;;;;;;4.47;2.90;;;;;;;9.66;51.27;98694.34;4979945;28;20041;-82
2024/02/05 03:39:20;;;;;;;3.45;2.60;;;;;;;9.63;51.06;98676.31;4980037;28;20037;-83
2024/02/05 03:41:46;;;;;;;3.55;2.75;;;;;;;9.54;50.95;98668.22;4995994;28;20042;-81
2024/02/05 03:44:11;;;;;;;3.05;2.42;;;;;;;9.59;50.99;98673.09;4995872;28;20041;-83
2024/02/05 03:46:37;;;;;;;3.10;2.45;;;;;;;9.65;50.95;98667.44;4979657;28;20077;-82
2024/02/05 03:49:02;;;;;;;3.55;2.67;;;;;;;9.64;51.16;98665.78;4995545;28;20406;-82
2024/02/05 03:51:28;;;;;;;3.30;2.58;;;;;;;9.66;50.90;98670.88;4995264;28;20046;-81
2024/02/05 03:53:53;;;;;;;4.00;2.60;;;;;;;9.62;51.26;98665.06;5013688;28;20445;-81
2024/02/05 03:56:19;;;;;;;3.80;2.47;;;;;;;9.62;50.97;98665.06;4996165;28;20048;-82
2024/02/05 03:58:44;;;;;;;2.88;2.35;;;;;;;9.67;51.06;98678.59;4980017;28;20076;-81
2024/02/05 04:01:10;;;;;;;3.60;2.50;;;;;;;9.68;51.03;98672.44;5012619;28;20109;-82
2024/02/05 04:03:36;;;;;;;3.22;2.42;;;;;;;9.66;50.92;98661.31;4979319;28;20414;-82
2024/02/05 04:06:02;;;;;;;3.03;2.10;;;;;;;9.72;51.15;98665.22;4979727;28;20048;-82
2024/02/05 04:08:27;;;;;;;3.35;2.67;;;;;;;9.76;50.84;98664.88;4978415;28;20192;-82
2024/02/05 04:10:53;;;;;;;3.13;2.20;;;;;;;9.79;50.83;98658.63;4978812;28;20409;-82
2024/02/05 04:13:19;;;;;;;3.85;2.30;;;;;;;9.80;50.83;98646.41;4995661;28;20042;-82
2024/02/05 04:15:44;;;;;;;3.28;2.38;;;;;;;9.86;50.64;98651.97;4962971;28;20045;-82
2024/02/05 04:18:10;;;;;;;3.83;2.38;;;;;;;9.88;50.68;98649.25;4994980;28;20041;-82
2024/02/05 04:20:35;;;;;;;3.40;2.70;;;;;;;9.89;50.82;98641.31;4979164;28;20537;-82
2024/02/05 04:23:01;;;;;;;3.22;2.42;;;;;;;9.97;50.53;98651.19;4963411;28;20076;-83
2024/02/05 04:25:26;;;;;;;2.55;2.28;;;;;;;10.02;50.54;98648.22;4979219;28;20421;-84
2024/02/05 04:27:53;;;;;;;2.92;2.08;;;;;;;10.04;50.33;98643.72;4978774;28;20041;-83
2024/02/05 04:30:26;;;;;;;4.00;2.55;;;;;;;10.07;50.44;98643.50;4979055;28;20029;-82
2024/02/05 04:32:52;;;;;;;3.20;2.67;;;;;;;10.08;50.42;98642.56;4981679;28;20041;-83
2024/02/05 04:35:17;;;;;;;3.28;2.30;;;;;;;10.13;50.27;98643.03;4977830;28;20042;-83
2024/02/05 04:37:43;;;;;;;3.20;2.47;;;;;;;10.16;50.15;98644.59;4995241;28;20033;-83
2024/02/05 04:40:08;;;;;;;3.53;2.33;;;;;;;10.17;50.29;98638.41;4978484;28;20413;-82
2024/02/05 04:42:34;;;;;;;3.70;2.70;;;;;;;10.18;50.00;98633.06;4995330;28;20508;-83
2024/02/05 04:44:59;;;;;;;3.90;2.70;;;;;;;10.18;50.09;98638.28;4995448;28;20509;-86
2024/02/05 04:47:25;;;;;;;2.72;2.30;;;;;;;10.20;50.13;98636.41;4997654;28;20046;-88
2024/02/05 04:49:52;;;;;;;2.92;2.45;;;;;;;10.19;49.83;98645.19;5013713;28;20049;-89
2024/02/05 04:52:18;;;;;;;3.65;2.38;;;;;;;10.19;50.01;98645.19;4963322;28;20053;-81
2024/02/05 04:54:43;;;;;;;3.28;2.60;;;;;;;10.20;49.96;98652.06;4978935;28;20030;-80
2024/02/05 04:57:09;;;;;;;3.92;2.65;;;;;;;10.20;49.92;98648.59;4995079;28;20034;-82
2024/02/05 04:59:34;;;;;;;3.88;2.55;;;;;;;10.14;49.99;98644.69;4962410;28;20100;-80
2024/02/05 05:02:00;;;;;;;10.30;1.83;;;;;;;10.33;62.65;98649.38;4979466;28;20484;-83
2024/02/05 05:04:26;;;;;;;3.95;1.65;;;;;;;10.55;64.72;98653.78;4963100;28;20494;-82
2024/02/05 05:06:51;;;;;;;11.05;1.70;;;;;;;10.57;61.17;98651.03;4979042;28;20038;-79
2024/02/05 05:09:17;;;;;;;3.08;1.50;;;;;;;10.61;59.31;98649.84;4979513;28;20041;-82
2024/02/05 05:11:42;;;;;;;3.55;1.40;;;;;;;10.60;57.96;98646.41;4962821;28;20088;-80
2024/02/05 05:14:08;;;;;;;3.97;1.42;;;;;;;10.52;57.30;98643.56;4994978;28;20042;-84
2024/02/05 05:16:33;;;;;;;5.00;2.22;;;;;;;10.54;56.49;98659.94;4964635;28;20413;-79
2024/02/05 05:19:01;;;;;;;2.05;1.33;;;;;;;10.57;55.86;98667.53;5004881;28;20033;-82
2024/02/05 05:21:26;;;;;;;2.15;1.38;;;;;;;10.55;55.35;98661.59;4995742;28;20041;-81
2024/02/05 05:23:52;;;;;;;4.25;1.50;;;;;;;10.53;54.85;98663.50;4981887;28;20062;-83
2024/02/05 05:26:21;;;;;;;5.93;1.90;;;;;;;10.49;54.50;98656.84;5003327;28;20061;-80
2024/02/05 05:28:48;;;;;;;6.93;1.80;;;;;;;10.55;54.68;98658.13;4973667;28;20472;-81
2024/02/05 05:31:16;;;;;;;4.30;1.73;;;;;;;10.56;57.43;98650.19;4981654;28;20084;-82
2024/02/05 05:33:43;;;;;;;3.78;1.70;;;;;;;10.57;55.73;98666.72;4998980;28;20034;-80
2024/02/05 05:36:08;;;;;;;2.92;1.80;;;;;;;10.56;55.11;98667.66;4982269;28;20540;-78
2024/02/05 05:38:34;;;;;;;6.65;1.92;;;;;;;10.54;54.63;98662.53;4982402;28;20045;-84
2024/02/05 05:40:59;;;;;;;7.72;2.00;;;;;;;10.52;54.23;98676.69;4966347;28;20107;-84
2024/02/05 05:43:25;;;;;;;4.30;1.98;;;;;;;10.56;53.57;98684.13;4982591;28;20073;-85
2024/02/05 05:45:51;;;;;;;4.22;2.30;;;;;;;10.52;52.90;98679.28;4966191;28;20046;-87
2024/02/05 05:48:17;;;;;;;3.85;1.92;;;;;;;10.45;52.79;98679.75;4980618;28;20034;-87
2024/02/05 05:50:43;;;;;;;4.25;2.15;;;;;;;10.54;52.28;98672.16;5014606;28;21913;-86
2024/02/05 05:53:08;;;;;;;3.97;2.28;;;;;;;10.46;52.02;98651.88;4947489;28;20054;-88
2024/02/05 05:55:34;;;;;;;5.65;2.65;;;;;;;10.59;51.40;98675.25;4945574;28;20046;-89
2024/02/05 05:57:59;;;;;;;6.00;2.80;;;;;;;10.73;50.63;98682.81;4948937;28;20105;-88
2024/02/05 06:00:25;;;;;;;4.80;2.60;;;;;;;11.01;49.92;98667.63;4945421;28;20050;-86
2024/02/05 06:02:50;;;;;;;6.35;2.95;;;;;;;11.30;49.13;98669.69;4946153;28;20065;-88
2024/02/05 06:05:16;;;;;;;4.68;2.70;;;;;;;11.57;48.42;98672.69;4978772;28;20045;-87
2024/02/05 06:07:41;;;;;;;5.55;2.60;;;;;;;11.86;47.75;98681.69;4945838;28;20529;-88
2024/02/05 06:10:07;;;;;;;5.43;2.63;;;;;;;11.91;47.47;98679.56;4962308;28;20058;-87
2024/02/05 06:12:33;;;;;;;5.63;2.60;;;;;;;12.01;47.47;98675.22;4962645;28;20081;-87
2024/02/05 06:14:58;;;;;;;9.40;2.78;;;;;;;12.21;46.74;98670.94;4962531;28;20062;-86
2024/02/05 06:17:24;;;;;;;6.20;2.50;;;;;;;12.34;46.46;98678.59;4962218;28;20084;-88
2024/02/05 06:19:49;;;;;;;4.50;2.35;;;;;;;12.43;46.40;98688.28;4946893;28;20030;-86
2024/02/05 06:22:15;;;;;;;14.25;2.58;;;;;;;12.49;45.93;98676.44;4962454;28;20061;-87
2024/02/05 06:24:40;;;;;;;3.55;2.42;;;;;;;12.53;45.83;98675.25;4978667;28;20564;-87
2024/02/05 06:27:07;;;;;;;3.05;1.90;;;;;;;12.57;45.60;98683.66;4995864;28;20034;-88
2024/02/05 06:29:32;;;;;;;4.03;1.75;;;;;;;12.68;45.65;98696.66;4947338;28;20088;-88
2024/02/05 06:31:58;;;;;;;3.38;2.10;;;;;;;12.69;45.23;98695.72;4946268;28;20117;-87
2024/02/05 06:34:23;;;;;;;4.28;2.20;;;;;;;12.74;45.23;98703.19;4978567;28;20097;-87
2024/02/05 06:36:50;;;;;;;3.85;2.38;;;;;;;12.74;45.05;98688.28;4946216;28;20087;-88
2024/02/05 06:39:15;;;;;;;3.80;2.10;;;;;;;12.83;45.05;98692.72;4978731;28;20121;-87
2024/02/05 06:41:41;;;;;;;5.55;2.03;;;;;;;13.01;44.76;98692.09;4946248;28;20049;-88
2024/02/05 06:44:06;;;;;;;5.18;2.17;;;;;;;13.05;44.49;98684.81;4961358;28;20050;-88
2024/02/05 06:46:32;;;;;;;4.25;1.98;;;;;;;13.27;43.94;98709.97;4945541;28;20137;-87
2024/02/05 06:48:57;;;;;;;3.92;2.20;;;;;;;13.30;43.85;98701.81;4978097;28;20062;-87
2024/02/05 06:51:23;;;;;;;3.30;1.98;;;;;;;13.33;43.82;98696.31;4948691;28;20053;-89
2024/02/05 06:53:48;;;;;;;3.55;1.70;;;;;;;13.37;43.89;98693.31;5007915;28;20069;-90
2024/02/05 06:56:14;;;;;;;3.95;1.90;;;;;;;13.38;43.83;98681.03;4967304;28;20061;-90
2024/02/05 06:58:40;;;;;;;3.10;1.80;;;;;;;13.51;43.88;98693.88;4980468;28;20040;-85
2024/02/05 07:01:05;;;;;;;4.22;1.77;;;;;;;13.62;43.69;98685.88;5014613;28;20037;-86
2024/02/05 07:03:31;;;;;;;5.07;1.80;;;;;;;13.72;43.52;98663.09;4980980;28;20147;-86
2024/02/05 07:05:56;;;;;;;3.20;1.60;;;;;;;14.08;42.79;98663.31;4980072;28;20476;-85
2024/02/05 07:08:22;;;;;;;5.50;1.75;;;;;;;14.69;47.63;98668.28;4988408;28;20095;-85
2024/02/05 07:10:47;;;;;;;3.72;1.75;;;;;;;14.63;47.32;98678.41;4980825;28;20421;-85
2024/02/05 07:13:13;;;;;;;6.03;1.80;;;;;;;15.69;47.04;98658.66;4980715;28;20049;-83
2024/02/05 07:15:38;;;;;;;4.10;1.65;;;;;;;15.88;45.59;98653.25;4980313;28;20061;-82
2024/02/05 07:18:04;;;;;;;3.05;1.60;;;;;;;17.75;41.88;98678.09;4964482;28;20497;-85
2024/02/05 07:20:30;;;;;;;3.42;1.60;;;;;;;18.60;39.68;98669.75;4982892;28;20053;-83
2024/02/05 07:22:55;;;;;;;2.85;1.67;;;;;;;20.39;36.41;98675.88;5017733;28;20034;-80
2024/02/05 07:25:21;;;;;;;3.20;1.67;;;;;;;21.62;34.26;98673.53;4963913;28;20041;-85
2024/02/05 07:27:47;;;;;;;2.95;1.60;;;;;;;22.20;33.31;98652.09;4980660;28;20095;-83
2024/02/05 07:30:13;;;;;;;5.32;1.42;;;;;;;23.32;31.57;98646.75;4965467;28;20049;-82
2024/02/05 07:32:38;;;;;;;2.38;1.60;;;;;;;23.25;31.78;98644.06;4983300;28;20140;-84
2024/02/05 07:35:04;;;;;;;3.47;1.63;;;;;;;24.03;30.48;98633.69;4979838;28;20045;-84
2024/02/05 07:37:33;;;;;;;4.00;1.52;;;;;;;24.39;30.01;98651.06;4964919;28;20034;-83
2024/02/05 07:39:59;;;;;;;2.47;1.40;;;;;;;24.71;29.95;98661.88;4984450;28;20073;-84
2024/02/05 07:42:25;;;;;;;3.45;1.50;;;;;;;24.85;29.91;98662.66;4979840;28;20141;-83
2024/02/05 07:44:50;;;;;;;3.45;1.50;;;;;;;25.15;29.65;98651.44;4964047;28;20090;-84
2024/02/05 07:47:16;;;;;;;2.90;1.50;;;;;;;25.31;29.45;98650.13;4996205;28;20421;-88
2024/02/05 07:49:42;;;;;;;5.05;1.60;;;;;;;25.45;29.33;98654.38;4997269;28;20042;-85
2024/02/05 07:52:08;;;;;;;4.68;1.42;;;;;;;25.13;29.79;98658.84;4963890;28;20049;-86
2024/02/05 07:54:33;;;;;;;4.30;1.50;;;;;;;25.46;29.52;98649.84;4980999;28;20070;-85
2024/02/05 07:57:02;;;;;;;2.95;1.40;;;;;;;25.42;29.53;98638.75;4996477;28;20542;-88
2024/02/05 07:59:28;;;;;;;4.63;1.50;;;;;;;24.76;30.29;98636.41;4980291;28;20429;-86
2024/02/05 08:01:54;;;;;;;2.90;1.40;;;;;;;24.20;30.82;98641.25;4979761;28;20068;-86
2024/02/05 08:04:19;;;;;;;3.83;1.77;;;;;;;24.27;30.74;98641.25;4963801;28;20069;-84
2024/02/05 08:06:45;;;;;;;3.20;1.40;;;;;;;23.87;31.13;98659.94;4980083;28;20041;-86
2024/02/05 08:09:10;;;;;;;2.90;1.60;;;;;;;23.30;32.21;98671.72;4979849;28;20099;-86
2024/02/05 08:11:36;;;;;;;3.90;1.60;;;;;;;22.76;32.78;98621.97;4996747;28;20074;-87
2024/02/05 08:14:01;;;;;;;3.47;1.63;;;;;;;22.30;32.94;98649.97;4980124;28;20045;-85
2024/02/05 08:16:27;;;;;;;2.97;1.70;;;;;;;21.78;33.37;98654.66;4979134;28;20038;-86
2024/02/05 08:18:52;;;;;;;2.83;1.70;;;;;;;21.41;33.92;98664.50;4980410;28;20085;-88
2024/02/05 08:21:18;;;;;;;2.85;1.50;;;;;;;21.01;34.58;98658.75;4995931;28;20091;-87
2024/02/05 08:23:47;;;;;;;3.05;1.90;;;;;;;20.62;34.95;98686.41;4964036;28;20034;-85
2024/02/05 08:26:12;;;;;;;2.83;1.60;;;;;;;20.35;35.57;98683.38;4981026;28;20041;-84
2024/02/05 08:28:38;;;;;;;2.80;1.63;;;;;;;20.10;35.76;98684.59;4963576;28;20052;-85
2024/02/05 08:31:03;;;;;;;3.83;1.98;;;;;;;19.82;36.38;98661.34;4962680;28;20042;-87
2024/02/05 08:33:30;;;;;;;4.65;1.70;;;;;;;19.66;36.48;98683.44;4979510;28;20065;-86
2024/02/05 08:35:55;;;;;;;3.97;1.65;;;;;;;19.53;36.94;98679.56;4979909;28;20038;-88
2024/02/05 08:38:21;;;;;;;3.80;1.77;;;;;;;19.43;37.04;98686.06;4979338;28;20410;-88
2024/02/05 08:40:46;;;;;;;2.67;1.40;;;;;;;19.27;37.15;98677.22;4979546;28;20054;-88
2024/02/05 08:43:12;;;;;;;3.83;1.70;;;;;;;19.27;37.44;98676.41;4979781;28;20073;-88
2024/02/05 08:45:37;;;;;;;2.80;1.58;;;;;;;20.08;36.55;98674.16;4979739;28;20046;-87
2024/02/05 08:48:04;;;;;;;3.35;1.70;;;;;;;20.27;36.00;98664.06;4995587;28;20057;-86
2024/02/05 08:50:33;;;;;;;3.35;1.92;;;;;;;20.83;35.54;98672.41;4963912;28;20045;-87
2024/02/05 08:53:03;;;;;;;3.25;1.73;;;;;;;21.10;35.15;98662.94;4981097;28;20055;-86
2024/02/05 08:55:28;;;;;;;2.30;1.60;;;;;;;21.59;34.78;98673.91;4979800;28;20030;-86
2024/02/05 08:57:54;;;;;;;3.22;1.55;;;;;;;22.25;33.89;98652.38;4979760;28;20181;-87
2024/02/05 09:00:19;;;;;;;3.60;1.55;;;;;;;22.83;33.06;98653.91;4983387;28;20046;-86
2024/02/05 09:02:48;;;;;;;2.47;1.60;;;;;;;23.63;32.41;98659.50;4983701;28;20046;-86
2024/02/05 09:05:14;;;;;;;2.30;1.35;;;;;;;24.41;31.47;98660.72;4988624;28;20096;-86
2024/02/05 09:07:39;;;;;;;3.00;1.50;;;;;;;24.92;30.93;98643.94;4976891;28;20042;-87
2024/02/05 09:10:07;;;;;;;2.75;1.60;;;;;;;25.72;29.97;98648.81;4995376;28;20049;-88
2024/02/05 09:12:33;;;;;;;2.20;1.30;;;;;;;26.29;29.08;98639.94;5022430;28;20153;-87
2024/02/05 09:14:58;;;;;;;3.38;1.50;;;;;;;27.15;28.27;98637.28;4982475;28;20580;-90
2024/02/05 09:17:23;;;;;;;3.20;1.50;;;;;;;27.96;26.96;98629.72;4967592;28;20042;-86
2024/02/05 09:19:49;;;;;;;2.85;1.48;;;;;;;27.74;27.71;98624.88;4999775;28;20037;-90
2024/02/05 09:22:15;;;;;;;3.42;1.20;;;;;;;28.40;26.47;98626.63;5019831;28;20037;-87
2024/02/05 09:24:40;;;;;;;2.28;1.10;;;;;;;28.81;26.29;98616.75;4983318;28;20498;-88
2024/02/05 09:27:06;;;;;;;2.17;1.30;;;;;;;29.12;26.07;98623.53;4982428;28;20057;-87
2024/02/05 09:29:31;;;;;;;2.00;1.20;;;;;;;30.40;23.99;98640.97;4999409;28;20046;-87
2024/02/05 09:31:57;;;;;;;1.73;1.08;;;;;;;29.96;24.37;98619.31;5017412;28;20060;-89
2024/02/05 09:34:23;;;;;;;1.85;1.15;;;;;;;30.20;24.17;98613.72;4990504;28;20034;-85
2024/02/05 09:36:49;;;;;;;1.75;0.95;;;;;;;29.70;24.53;98620.78;4982557;28;20524;-86
2024/02/05 09:39:14;;;;;;;3.72;1.40;;;;;;;28.32;26.53;98622.44;5015513;28;20108;-85
2024/02/05 09:41:40;;;;;;;3.13;1.17;;;;;;;28.47;26.00;98609.34;4998123;28;20042;-88
2024/02/05 09:44:06;;;;;;;1.80;1.00;;;;;;;27.22;27.67;98609.34;4965473;28;20073;-88
2024/02/05 09:46:32;;;;;;;1.80;1.00;;;;;;;26.63;28.25;98619.78;4981640;28;20037;-88
2024/02/05 09:49:04;;;;;;;1.85;1.00;;;;;;;26.08;29.12;98630.47;4981961;28;20113;-87
2024/02/05 09:51:32;;;;;;;2.30;1.00;;;;;;;25.37;30.07;98613.75;4998167;28;20049;-87
2024/02/05 09:53:57;;;;;;;1.83;1.00;;;;;;;24.84;30.60;98620.16;5016302;28;20033;-86
2024/02/05 09:56:25;;;;;;;1.63;1.10;;;;;;;24.27;31.15;98623.38;4981863;28;20041;-88
2024/02/05 09:58:51;;;;;;;;;;;;;;;23.80;31.98;98620.75;4983203;28;20034;-89
2024/02/05 10:01:16;;;;;;;2.17;1.10;;;;;;;23.36;32.56;98627.50;4998160;28;19913;-85
2024/02/05 10:03:42;;;;;;;1.92;1.10;;;;;;;22.98;32.97;98614.69;4965779;28;20041;-88
2024/02/05 10:06:07;;;;;;;2.38;1.20;;;;;;;22.64;33.35;98611.06;4997945;28;20112;-85
2024/02/05 10:08:33;;;;;;;2.20;1.20;;;;;;;22.32;33.82;98610.69;4982181;28;20109;-87
2024/02/05 10:10:59;;;;;;;2.30;1.15;;;;;;;22.05;34.56;98625.63;4997367;28;20457;-84
2024/02/05 10:13:24;;;;;;;3.28;1.30;;;;;;;21.75;34.38;98593.94;4965826;28;20050;-87
2024/02/05 10:15:50;;;;;;;1.55;0.98;;;;;;;21.57;34.86;98601.53;4981711;28;20553;-86
2024/02/05 10:18:15;;;;;;;1.50;0.95;;;;;;;21.29;35.38;98607.59;4981809;28;20038;-86
2024/02/05 10:20:41;;;;;;;2.22;1.00;;;;;;;21.05;35.42;98600.84;4981822;28;20033;-87
2024/02/05 10:23:07;;;;;;;2.40;1.25;;;;;;;20.89;35.83;98609.81;4998160;28;20037;-88
2024/02/05 10:25:33;;;;;;;1.92;1.23;;;;;;;20.64;35.79;98618.13;4965897;28;20062;-88
2024/02/05 10:28:02;;;;;;;2.50;1.10;;;;;;;20.45;35.93;98603.56;4981981;28;20034;-85
2024/02/05 10:30:28;;;;;;;2.47;1.30;;;;;;;20.36;36.09;98602.81;4982226;28;20184;-87
2024/02/05 10:32:58;;;;;;;3.33;1.30;;;;;;;20.22;36.23;98588.56;4985375;28;20513;-90
2024/02/05 10:35:24;;;;;;;2.40;1.30;;;;;;;20.12;36.32;98576.59;4987773;28;20033;-87
2024/02/05 10:37:49;;;;;;;2.78;1.40;;;;;;;19.96;36.32;98565.16;4976794;28;20041;-87
2024/02/05 10:40:15;;;;;;;2.50;1.60;;;;;;;19.90;36.54;98568.53;4964902;28;20034;-87
2024/02/05 10:42:42;;;;;;;2.85;1.42;;;;;;;19.84;36.66;98562.13;4997549;28;20041;-87
2024/02/05 10:45:07;;;;;;;2.25;1.40;;;;;;;19.77;36.58;98563.06;4964815;28;20045;-87
2024/02/05 10:47:34;;;;;;;2.55;1.50;;;;;;;19.69;36.78;98562.09;4979999;28;20034;-88
2024/02/05 10:49:59;;;;;;;2.35;1.40;;;;;;;19.64;36.82;98553.03;4998155;28;20030;-87
2024/02/05 10:52:25;;;;;;;3.58;1.50;;;;;;;19.46;37.07;98545.41;4980438;28;20493;-86
2024/02/05 10:54:50;;;;;;;3.38;1.27;;;;;;;19.33;37.30;98543.38;4981070;28;20482;-88
2024/02/05 10:57:19;;;;;;;2.80;1.50;;;;;;;19.25;37.58;98549.56;4997016;28;20030;-87
2024/02/05 10:59:45;;;;;;;2.08;1.35;;;;;;;19.22;37.49;98538.50;4996635;28;20045;-85
2024/02/05 11:02:27;;;;;;;3.28;1.60;;;;;;;19.17;37.62;98553.09;4999453;28;20413;-87
2024/02/05 11:04:54;;;;;;;2.45;1.33;;;;;;;19.10;37.71;98527.50;5002416;28;20489;-86
2024/02/05 11:07:20;;;;;;;2.10;1.20;;;;;;;19.04;37.88;98534.34;4985825;28;20042;-88
2024/02/05 11:09:47;;;;;;;2.08;1.42;;;;;;;19.01;37.07;98510.06;4970423;28;20034;-87
2024/02/05 11:12:13;;;;;;;2.40;1.45;;;;;;;19.00;37.17;98529.59;4986718;28;20045;-87
2024/02/05 11:14:39;;;;;;;2.72;1.67;;;;;;;18.96;37.10;98515.88;4988035;28;20064;-87
2024/02/05 11:17:04;;;;;;;2.28;1.50;;;;;;;18.93;37.32;98518.91;4986054;28;20041;-85
2024/02/05 11:19:32;;;;;;;2.08;1.33;;;;;;;19.05;37.04;98508.72;4970955;28;20421;-88
2024/02/05 11:21:58;;;;;;;2.13;1.48;;;;;;;18.92;37.37;98509.31;4971176;28;20497;-88
2024/02/05 11:24:23;;;;;;;4.05;1.35;;;;;;;19.00;37.25;98498.66;4987004;28;20030;-86
2024/02/05 11:26:51;;;;;;;5.22;1.48;;;;;;;18.95;37.35;98506.31;4969256;28;20046;-87
2024/02/05 11:29:23;;;;;;;;;;;;;;;19.01;37.23;98507.41;4987544;28;20048;-87